sensor_id;sensor_type;location;lat;lon;timestamp;pressure;altitude;pressure_sealevel;temperature;humidity
17383;BME280;8809;51.892;8.384;2022-12-07T00:01:43;100489.06;;;4.45;100.00
17383;BME280;8809;51.892;8.384;2022-12-07T00:04:14;100490.06;;;4.47;100.00
17383;BME280;8809;51.892;8.384;2022-12-07T00:06:43;100486.56;;;4.46;100.00
17383;BME280;8809;51.892;8.384;2022-12-07T00:09:11;100498.69;;;4.47;100.00
17383;BME280;8809;51.892;8.384;2022-12-07T00:11:38;100497.69;;;4.45;100.00
17383;BME280;8809;51.892;8.384;2022-12-07T00:14:07;100490.06;;;4.47;100.00
17383;BME280;8809;51.892;8.384;2022-12-07T00:16:35;100492.63;;;4.47;100.00
17383;BME280;8809;51.892;8.384;2022-12-07T00:19:03;100481.72;;;4.51;100.00
17383;BME280;8809;51.892;8.384;2022-12-07T00:21:32;100483.41;;;4.51;100.00
17383;BME280;8809;51.892;8.384;2022-12-07T00:24:00;100481.63;;;4.50;100.00
17383;BME280;8809;51.892;8.384;2022-12-07T00:26:30;100480.72;;;4.49;100.00
17383;BME280;8809;51.892;8.384;2022-12-07T00:28:58;100483.31;;;4.49;100.00
17383;BME280;8809;51.892;8.384;2022-12-07T00:31:27;100477.34;;;4.50;100.00
17383;BME280;8809;51.892;8.384;2022-12-07T00:33:55;100478.31;;;4.52;100.00
17383;BME280;8809;51.892;8.384;2022-12-07T00:36:23;100477.44;;;4.52;100.00
17383;BME280;8809;51.892;8.384;2022-12-07T00:38:51;100470.56;;;4.52;100.00
17383;BME280;8809;51.892;8.384;2022-12-07T00:41:19;100475.66;;;4.51;100.00
17383;BME280;8809;51.892;8.384;2022-12-07T00:43:47;100474.88;;;4.52;100.00
17383;BME280;8809;51.892;8.384;2022-12-07T00:46:15;100480.88;;;4.52;100.00
17383;BME280;8809;51.892;8.384;2022-12-07T00:48:42;100477.72;;;4.56;100.00
17383;BME280;8809;51.892;8.384;2022-12-07T00:51:10;100476.03;;;4.57;100.00
17383;BME280;8809;51.892;8.384;2022-12-07T00:53:38;100468.19;;;4.55;100.00
17383;BME280;8809;51.892;8.384;2022-12-07T00:56:07;100464.91;;;4.58;100.00
17383;BME280;8809;51.892;8.384;2022-12-07T00:58:35;100469.19;;;4.57;100.00
17383;BME280;8809;51.892;8.384;2022-12-07T01:01:03;100469.97;;;4.56;100.00
17383;BME280;8809;51.892;8.384;2022-12-07T01:03:31;100463.22;;;4.58;100.00
17383;BME280;8809;51.892;8.384;2022-12-07T01:05:58;100459.84;;;4.59;100.00
17383;BME280;8809;51.892;8.384;2022-12-07T01:08:26;100462.41;;;4.59;100.00
17383;BME280;8809;51.892;8.384;2022-12-07T01:10:58;100458.16;;;4.60;100.00
17383;BME280;8809;51.892;8.384;2022-12-07T01:13:27;100455.66;;;4.61;100.00
17383;BME280;8809;51.892;8.384;2022-12-07T01:15:57;100458.25;;;4.61;100.00
17383;BME280;8809;51.892;8.384;2022-12-07T01:18:25;100460.84;;;4.61;100.00
17383;BME280;8809;51.892;8.384;2022-12-07T01:21:00;100466.78;;;4.60;100.00
17383;BME280;8809;51.892;8.384;2022-12-07T01:23:27;100467.75;;;4.62;100.00
17383;BME280;8809;51.892;8.384;2022-12-07T01:25:55;100468.59;;;4.61;100.00
17383;BME280;8809;51.892;8.384;2022-12-07T01:28:22;100473.81;;;4.63;100.00
17383;BME280;8809;51.892;8.384;2022-12-07T01:31:00;100467.59;;;4.59;100.00
17383;BME280;8809;51.892;8.384;2022-12-07T01:33:27;100478.91;;;4.61;100.00
17383;BME280;8809;51.892;8.384;2022-12-07T01:35:59;100474.72;;;4.63;100.00
17383;BME280;8809;51.892;8.384;2022-12-07T01:38:26;100475.63;;;4.64;100.00
17383;BME280;8809;51.892;8.384;2022-12-07T01:40:54;100473.91;;;4.64;100.00
17383;BME280;8809;51.892;8.384;2022-12-07T01:43:22;100474.91;;;4.66;100.00
17383;BME280;8809;51.892;8.384;2022-12-07T01:45:50;100487.84;;;4.66;100.00
17383;BME280;8809;51.892;8.384;2022-12-07T01:48:20;100483.47;;;4.65;100.00
17383;BME280;8809;51.892;8.384;2022-12-07T01:50:50;100472.94;;;4.62;100.00
17383;BME280;8809;51.892;8.384;2022-12-07T01:53:19;100474.81;;;4.65;100.00
17383;BME280;8809;51.892;8.384;2022-12-07T01:55:49;100478.50;;;4.68;100.00
17383;BME280;8809;51.892;8.384;2022-12-07T01:58:18;100476.72;;;4.67;100.00
17383;BME280;8809;51.892;8.384;2022-12-07T02:00:46;100475.91;;;4.68;100.00
17383;BME280;8809;51.892;8.384;2022-12-07T02:03:16;100478.50;;;4.68;100.00
17383;BME280;8809;51.892;8.384;2022-12-07T02:05:46;100471.63;;;4.69;100.00
17383;BME280;8809;51.892;8.384;2022-12-07T02:08:15;100468.25;;;4.70;100.00
17383;BME280;8809;51.892;8.384;2022-12-07T02:10:43;100474.22;;;4.69;100.00
17383;BME280;8809;51.892;8.384;2022-12-07T02:13:11;100466.47;;;4.69;100.00
17383;BME280;8809;51.892;8.384;2022-12-07T02:15:55;100470.75;;;4.68;100.00
17383;BME280;8809;51.892;8.384;2022-12-07T02:18:38;100463.00;;;4.68;100.00
17383;BME280;8809;51.892;8.384;2022-12-07T02:21:11;100468.16;;;4.68;100.00
17383;BME280;8809;51.892;8.384;2022-12-07T02:23:46;100468.16;;;4.68;100.00
17383;BME280;8809;51.892;8.384;2022-12-07T02:29:22;100462.09;;;4.68;100.00
17383;BME280;8809;51.892;8.384;2022-12-07T02:31:58;100465.47;;;4.67;100.00
17383;BME280;8809;51.892;8.384;2022-12-07T02:34:34;100465.56;;;4.68;100.00
17383;BME280;8809;51.892;8.384;2022-12-07T02:37:09;100468.16;;;4.68;100.00
17383;BME280;8809;51.892;8.384;2022-12-07T02:39:44;100467.28;;;4.68;100.00
17383;BME280;8809;51.892;8.384;2022-12-07T02:42:18;100463.00;;;4.68;100.00
17383;BME280;8809;51.892;8.384;2022-12-07T02:44:48;100466.38;;;4.67;100.00
17383;BME280;8809;51.892;8.384;2022-12-07T02:47:17;100465.47;;;4.67;100.00
17383;BME280;8809;51.892;8.384;2022-12-07T02:49:46;100461.78;;;4.63;100.00
17383;BME280;8809;51.892;8.384;2022-12-07T02:52:13;100461.00;;;4.64;100.00
17383;BME280;8809;51.892;8.384;2022-12-07T02:54:40;100456.53;;;4.62;100.00
17383;BME280;8809;51.892;8.384;2022-12-07T02:57:19;100452.25;;;4.62;100.00
17383;BME280;8809;51.892;8.384;2022-12-07T03:00:00;100452.09;;;4.59;100.00
17383;BME280;8809;51.892;8.384;2022-12-07T03:02:36;100452.09;;;4.59;100.00
17383;BME280;8809;51.892;8.384;2022-12-07T03:05:15;100452.88;;;4.58;100.00
17383;BME280;8809;51.892;8.384;2022-12-07T03:07:52;100451.78;;;4.55;100.00
17383;BME280;8809;51.892;8.384;2022-12-07T03:10:27;100449.31;;;4.56;100.00
17383;BME280;8809;51.892;8.384;2022-12-07T03:13:02;100449.19;;;4.55;100.00
17383;BME280;8809;51.892;8.384;2022-12-07T03:15:38;100456.06;;;4.54;100.00
17383;BME280;8809;51.892;8.384;2022-12-07T03:18:07;100457.66;;;4.52;100.00
17383;BME280;8809;51.892;8.384;2022-12-07T03:20:37;100457.66;;;4.52;100.00
17383;BME280;8809;51.892;8.384;2022-12-07T03:23:08;100464.31;;;4.48;100.00
17383;BME280;8809;51.892;8.384;2022-12-07T03:25:40;100447.72;;;4.45;100.00
17383;BME280;8809;51.892;8.384;2022-12-07T03:28:08;100451.22;;;4.45;100.00
17383;BME280;8809;51.892;8.384;2022-12-07T03:30:42;100445.94;;;4.44;100.00
17383;BME280;8809;51.892;8.384;2022-12-07T03:33:14;100449.31;;;4.43;100.00
17383;BME280;8809;51.892;8.384;2022-12-07T03:35:47;100447.56;;;4.42;100.00
17383;BME280;8809;51.892;8.384;2022-12-07T03:38:18;100443.25;;;4.42;100.00
17383;BME280;8809;51.892;8.384;2022-12-07T03:40:49;100436.13;;;4.38;100.00
17383;BME280;8809;51.892;8.384;2022-12-07T03:43:19;100442.97;;;4.38;100.00
17383;BME280;8809;51.892;8.384;2022-12-07T03:45:55;100443.78;;;4.37;100.00
17383;BME280;8809;51.892;8.384;2022-12-07T03:48:30;100448.06;;;4.36;100.00
17383;BME280;8809;51.892;8.384;2022-12-07T03:51:06;100448.75;;;4.34;100.00
17383;BME280;8809;51.892;8.384;2022-12-07T03:53:39;100442.69;;;4.33;100.00
17383;BME280;8809;51.892;8.384;2022-12-07T03:56:08;100444.31;;;4.31;100.00
17383;BME280;8809;51.892;8.384;2022-12-07T03:58:37;100445.00;;;4.29;100.00
17383;BME280;8809;51.892;8.384;2022-12-07T04:01:06;100439.72;;;4.27;100.00
17383;BME280;8809;51.892;8.384;2022-12-07T04:03:33;100438.72;;;4.25;100.00
17383;BME280;8809;51.892;8.384;2022-12-07T04:06:00;100442.09;;;4.24;100.00
17383;BME280;8809;51.892;8.384;2022-12-07T04:08:28;100441.03;;;4.21;100.00
17383;BME280;8809;51.892;8.384;2022-12-07T04:10:55;100430.50;;;4.18;100.00
17383;BME280;8809;51.892;8.384;2022-12-07T04:13:21;100437.13;;;4.14;100.00
17383;BME280;8809;51.892;8.384;2022-12-07T04:15:48;100443.91;;;4.12;100.00
17383;BME280;8809;51.892;8.384;2022-12-07T04:18:16;100440.13;;;4.07;100.00
17383;BME280;8809;51.892;8.384;2022-12-07T04:20:45;100443.31;;;4.03;100.00
17383;BME280;8809;51.892;8.384;2022-12-07T04:23:11;100442.22;;;3.99;100.00
17383;BME280;8809;51.892;8.384;2022-12-07T04:25:38;100448.97;;;3.97;100.00
17383;BME280;8809;51.892;8.384;2022-12-07T04:28:05;100451.53;;;3.97;100.00
17383;BME280;8809;51.892;8.384;2022-12-07T04:30:32;100442.81;;;3.95;100.00
17383;BME280;8809;51.892;8.384;2022-12-07T04:32:59;100447.97;;;3.95;100.00
17383;BME280;8809;51.892;8.384;2022-12-07T04:35:27;100447.97;;;3.95;100.00
17383;BME280;8809;51.892;8.384;2022-12-07T04:37:54;100447.97;;;3.95;100.00
17383;BME280;8809;51.892;8.384;2022-12-07T04:40:21;100443.59;;;3.94;100.00
17383;BME280;8809;51.892;8.384;2022-12-07T04:42:47;100446.19;;;3.94;100.00
17383;BME280;8809;51.892;8.384;2022-12-07T04:45:14;100444.50;;;3.95;100.00
17383;BME280;8809;51.892;8.384;2022-12-07T04:47:41;100447.69;;;3.91;100.00
17383;BME280;8809;51.892;8.384;2022-12-07T04:50:09;100448.59;;;3.91;100.00
17383;BME280;8809;51.892;8.384;2022-12-07T04:52:40;100444.91;;;3.88;100.00
17383;BME280;8809;51.892;8.384;2022-12-07T04:55:07;100455.91;;;3.85;100.00
17383;BME280;8809;51.892;8.384;2022-12-07T04:57:34;100454.84;;;3.82;100.00
17383;BME280;8809;51.892;8.384;2022-12-07T05:00:01;100444.28;;;3.79;100.00
17383;BME280;8809;51.892;8.384;2022-12-07T05:02:28;100448.28;;;3.73;100.00
17383;BME280;8809;51.892;8.384;2022-12-07T05:04:54;100450.84;;;3.73;100.00
17383;BME280;8809;51.892;8.384;2022-12-07T05:07:21;100447.28;;;3.71;100.00
17383;BME280;8809;51.892;8.384;2022-12-07T05:09:49;100443.00;;;3.72;100.00
17383;BME280;8809;51.892;8.384;2022-12-07T05:12:16;100438.66;;;3.71;100.00
17383;BME280;8809;51.892;8.384;2022-12-07T05:14:43;100443.00;;;3.72;100.00
17383;BME280;8809;51.892;8.384;2022-12-07T05:17:10;100439.44;;;3.70;100.00
17383;BME280;8809;51.892;8.384;2022-12-07T05:19:37;100436.84;;;3.70;100.00
17383;BME280;8809;51.892;8.384;2022-12-07T05:22:04;100438.44;;;3.68;100.00
17383;BME280;8809;51.892;8.384;2022-12-07T05:24:31;100439.03;;;3.64;100.00
17383;BME280;8809;51.892;8.384;2022-12-07T05:26:59;100440.63;;;3.62;100.00
17383;BME280;8809;51.892;8.384;2022-12-07T05:29:26;100442.19;;;3.60;100.00
17383;BME280;8809;51.892;8.384;2022-12-07T05:31:53;100446.34;;;3.58;100.00
17383;BME280;8809;51.892;8.384;2022-12-07T05:34:20;100443.88;;;3.59;100.00
17383;BME280;8809;51.892;8.384;2022-12-07T05:36:47;100437.63;;;3.56;100.00
17383;BME280;8809;51.892;8.384;2022-12-07T05:39:14;100443.78;;;3.58;100.00
17383;BME280;8809;51.892;8.384;2022-12-07T05:41:41;100441.97;;;3.57;100.00
17383;BME280;8809;51.892;8.384;2022-12-07T05:44:27;100430.59;;;3.53;100.00
17383;BME280;8809;51.892;8.384;2022-12-07T05:46:54;100432.28;;;3.53;100.00
17383;BME280;8809;51.892;8.384;2022-12-07T05:49:21;100432.28;;;3.53;100.00
17383;BME280;8809;51.892;8.384;2022-12-07T05:51:47;100430.47;;;3.52;100.00
17383;BME280;8809;51.892;8.384;2022-12-07T05:54:14;100432.16;;;3.51;100.00
17383;BME280;8809;51.892;8.384;2022-12-07T05:56:41;100428.78;;;3.52;100.00
17383;BME280;8809;51.892;8.384;2022-12-07T05:59:08;100425.22;;;3.50;100.00
17383;BME280;8809;51.892;8.384;2022-12-07T06:01:55;100434.63;;;3.50;100.00
17383;BME280;8809;51.892;8.384;2022-12-07T06:04:23;100428.69;;;3.51;100.00
17383;BME280;8809;51.892;8.384;2022-12-07T06:06:50;100433.84;;;3.51;100.00
17383;BME280;8809;51.892;8.384;2022-12-07T06:09:18;100427.81;;;3.50;100.00
17383;BME280;8809;51.892;8.384;2022-12-07T06:11:45;100430.38;;;3.50;100.00
17383;BME280;8809;51.892;8.384;2022-12-07T06:14:30;100424.31;;;3.50;100.00
17383;BME280;8809;51.892;8.384;2022-12-07T06:16:58;100428.59;;;3.49;100.00
17383;BME280;8809;51.892;8.384;2022-12-07T06:19:25;100426.00;;;3.49;100.00
17383;BME280;8809;51.892;8.384;2022-12-07T06:21:53;100428.69;;;3.51;100.00
17383;BME280;8809;51.892;8.384;2022-12-07T06:24:20;100429.47;;;3.50;100.00
17383;BME280;8809;51.892;8.384;2022-12-07T06:26:47;100436.44;;;3.51;100.00
17383;BME280;8809;51.892;8.384;2022-12-07T06:29:15;100429.38;;;3.48;100.00
17383;BME280;8809;51.892;8.384;2022-12-07T06:31:42;100433.53;;;3.46;100.00
17383;BME280;8809;51.892;8.384;2022-12-07T06:34:12;100434.25;;;3.44;100.00
17383;BME280;8809;51.892;8.384;2022-12-07T06:36:39;100434.03;;;3.41;100.00
17383;BME280;8809;51.892;8.384;2022-12-07T06:39:07;100432.03;;;3.36;100.00
17383;BME280;8809;51.892;8.384;2022-12-07T06:41:35;100432.91;;;3.37;100.00
17383;BME280;8809;51.892;8.384;2022-12-07T06:44:04;100430.16;;;3.34;100.00
17383;BME280;8809;51.892;8.384;2022-12-07T06:46:31;100424.88;;;3.32;100.00
17383;BME280;8809;51.892;8.384;2022-12-07T06:48:58;100426.47;;;3.30;100.00
17383;BME280;8809;51.892;8.384;2022-12-07T06:51:29;100431.41;;;3.27;100.00
17383;BME280;8809;51.892;8.384;2022-12-07T06:53:56;100428.53;;;3.23;100.00
17383;BME280;8809;51.892;8.384;2022-12-07T06:56:23;100425.84;;;3.21;100.00
17383;BME280;8809;51.892;8.384;2022-12-07T06:58:50;100425.44;;;3.15;100.00
17383;BME280;8809;51.892;8.384;2022-12-07T07:01:18;100425.22;;;3.12;100.00
17383;BME280;8809;51.892;8.384;2022-12-07T07:03:45;100432.75;;;3.09;100.00
17383;BME280;8809;51.892;8.384;2022-12-07T07:06:13;100428.31;;;3.07;100.00
17383;BME280;8809;51.892;8.384;2022-12-07T07:08:41;100439.50;;;3.07;100.00
17383;BME280;8809;51.892;8.384;2022-12-07T07:11:09;100435.13;;;3.06;100.00
17383;BME280;8809;51.892;8.384;2022-12-07T07:13:36;100444.53;;;3.06;100.00
17383;BME280;8809;51.892;8.384;2022-12-07T07:16:04;100445.22;;;3.03;100.00
17383;BME280;8809;51.892;8.384;2022-12-07T07:18:31;100445.34;;;3.05;100.00
17383;BME280;8809;51.892;8.384;2022-12-07T07:20:58;100445.91;;;3.01;100.00
17383;BME280;8809;51.892;8.384;2022-12-07T07:23:25;100448.28;;;2.97;100.00
17383;BME280;8809;51.892;8.384;2022-12-07T07:25:54;100446.38;;;2.95;100.00
17383;BME280;8809;51.892;8.384;2022-12-07T07:28:21;100450.53;;;2.93;100.00
17383;BME280;8809;51.892;8.384;2022-12-07T07:30:48;100445.88;;;2.87;100.00
17383;BME280;8809;51.892;8.384;2022-12-07T07:33:15;100444.84;;;2.85;100.00
17383;BME280;8809;51.892;8.384;2022-12-07T07:35:44;100449.13;;;2.85;100.00
17383;BME280;8809;51.892;8.384;2022-12-07T07:38:11;100450.69;;;2.83;100.00
17383;BME280;8809;51.892;8.384;2022-12-07T07:40:39;100448.00;;;2.81;100.00
17383;BME280;8809;51.892;8.384;2022-12-07T07:43:09;100458.28;;;2.81;100.00
17383;BME280;8809;51.892;8.384;2022-12-07T07:45:36;100457.41;;;2.81;100.00
17383;BME280;8809;51.892;8.384;2022-12-07T07:48:03;100458.28;;;2.81;100.00
17383;BME280;8809;51.892;8.384;2022-12-07T07:50:31;100459.97;;;2.81;100.00
17383;BME280;8809;51.892;8.384;2022-12-07T07:52:58;100471.84;;;2.79;100.00
17383;BME280;8809;51.892;8.384;2022-12-07T07:55:24;100471.66;;;2.76;100.00
17383;BME280;8809;51.892;8.384;2022-12-07T07:57:52;100465.59;;;2.75;100.00
17383;BME280;8809;51.892;8.384;2022-12-07T08:00:22;100469.88;;;2.75;100.00
17383;BME280;8809;51.892;8.384;2022-12-07T08:02:49;100471.53;;;2.74;100.00
17383;BME280;8809;51.892;8.384;2022-12-07T08:05:17;100475.69;;;2.72;100.00
17383;BME280;8809;51.892;8.384;2022-12-07T08:07:43;100478.25;;;2.72;100.00
17383;BME280;8809;51.892;8.384;2022-12-07T08:10:12;100473.13;;;2.72;100.00
17383;BME280;8809;51.892;8.384;2022-12-07T08:12:41;100478.16;;;2.71;100.00
17383;BME280;8809;51.892;8.384;2022-12-07T08:15:25;100476.34;;;2.70;100.00
17383;BME280;8809;51.892;8.384;2022-12-07T08:17:52;100473.59;;;2.67;100.00
17383;BME280;8809;51.892;8.384;2022-12-07T08:20:19;100475.38;;;2.68;100.00
17383;BME280;8809;51.892;8.384;2022-12-07T08:22:46;100476.94;;;2.66;100.00
17383;BME280;8809;51.892;8.384;2022-12-07T08:25:13;100478.63;;;2.65;100.00
17383;BME280;8809;51.892;8.384;2022-12-07T08:27:40;100485.47;;;2.65;100.00
17383;BME280;8809;51.892;8.384;2022-12-07T08:30:07;100479.53;;;2.66;100.00
17383;BME280;8809;51.892;8.384;2022-12-07T08:32:36;100482.09;;;2.66;100.00
17383;BME280;8809;51.892;8.384;2022-12-07T08:35:03;100474.50;;;2.67;100.00
17383;BME280;8809;51.892;8.384;2022-12-07T08:37:31;100474.69;;;2.70;100.00
17383;BME280;8809;51.892;8.384;2022-12-07T08:39:58;100473.78;;;2.70;100.00
17383;BME280;8809;51.892;8.384;2022-12-07T08:42:25;100480.72;;;2.71;100.00
17383;BME280;8809;51.892;8.384;2022-12-07T08:44:55;100469.53;;;2.70;100.00
17383;BME280;8809;51.892;8.384;2022-12-07T08:47:23;100478.38;;;2.74;100.00
17383;BME280;8809;51.892;8.384;2022-12-07T08:49:53;100473.22;;;2.74;100.00
17383;BME280;8809;51.892;8.384;2022-12-07T08:52:21;100474.22;;;2.76;100.00
17383;BME280;8809;51.892;8.384;2022-12-07T08:54:49;100475.13;;;2.76;100.00
17383;BME280;8809;51.892;8.384;2022-12-07T08:57:17;100471.66;;;2.76;100.00
17383;BME280;8809;51.892;8.384;2022-12-07T08:59:44;100475.13;;;2.76;100.00
17383;BME280;8809;51.892;8.384;2022-12-07T09:02:11;100477.81;;;2.78;100.00
17383;BME280;8809;51.892;8.384;2022-12-07T09:04:38;100470.88;;;2.77;100.00
17383;BME280;8809;51.892;8.384;2022-12-07T09:07:06;100475.31;;;2.79;100.00
17383;BME280;8809;51.892;8.384;2022-12-07T09:09:33;100473.63;;;2.80;100.00
17383;BME280;8809;51.892;8.384;2022-12-07T09:12:00;100467.72;;;2.81;100.00
17383;BME280;8809;51.892;8.384;2022-12-07T09:14:27;100466.13;;;2.83;100.00
17383;BME280;8809;51.892;8.384;2022-12-07T09:16:54;100476.66;;;2.86;100.00
17383;BME280;8809;51.892;8.384;2022-12-07T09:19:21;100473.38;;;2.88;100.00
17383;BME280;8809;51.892;8.384;2022-12-07T09:21:48;100473.50;;;2.90;100.00
17383;BME280;8809;51.892;8.384;2022-12-07T09:24:16;100473.03;;;2.95;100.00
17383;BME280;8809;51.892;8.384;2022-12-07T09:26:43;100470.59;;;2.97;100.00
17383;BME280;8809;51.892;8.384;2022-12-07T09:29:10;100467.41;;;3.01;100.00
17383;BME280;8809;51.892;8.384;2022-12-07T09:31:37;100474.75;;;3.08;100.00
17383;BME280;8809;51.892;8.384;2022-12-07T09:34:04;100480.13;;;3.11;100.00
17383;BME280;8809;51.892;8.384;2022-12-07T09:36:33;100482.25;;;3.17;100.00
17383;BME280;8809;51.892;8.384;2022-12-07T09:39:00;100481.88;;;3.24;100.00
17383;BME280;8809;51.892;8.384;2022-12-07T09:41:30;100483.19;;;3.30;100.00
17383;BME280;8809;51.892;8.384;2022-12-07T09:44:03;100476.84;;;3.39;100.00
17383;BME280;8809;51.892;8.384;2022-12-07T09:46:35;100478.75;;;3.41;100.00
17383;BME280;8809;51.892;8.384;2022-12-07T09:49:06;100478.25;;;3.47;100.00
17383;BME280;8809;51.892;8.384;2022-12-07T09:51:37;100469.84;;;3.49;100.00
17383;BME280;8809;51.892;8.384;2022-12-07T09:54:04;100475.50;;;3.57;100.00
17383;BME280;8809;51.892;8.384;2022-12-07T09:56:33;100480.31;;;3.64;100.00
17383;BME280;8809;51.892;8.384;2022-12-07T09:59:01;100470.38;;;3.70;100.00
17383;BME280;8809;51.892;8.384;2022-12-07T10:01:30;100474.25;;;3.77;100.00
17383;BME280;8809;51.892;8.384;2022-12-07T10:04:08;100477.16;;;3.81;100.00
17383;BME280;8809;51.892;8.384;2022-12-07T10:06:37;100476.53;;;3.85;100.00
17383;BME280;8809;51.892;8.384;2022-12-07T10:09:09;100468.13;;;3.88;100.00
17383;BME280;8809;51.892;8.384;2022-12-07T10:12:03;100467.53;;;3.92;100.00
17383;BME280;8809;51.892;8.384;2022-12-07T10:14:32;100470.22;;;3.93;100.00
17383;BME280;8809;51.892;8.384;2022-12-07T10:16:59;100472.88;;;3.95;100.00
17383;BME280;8809;51.892;8.384;2022-12-07T10:19:28;100471.97;;;3.94;100.00
17383;BME280;8809;51.892;8.384;2022-12-07T10:22:09;100467.94;;;3.98;100.00
17383;BME280;8809;51.892;8.384;2022-12-07T10:24:37;100468.81;;;3.98;100.00
17383;BME280;8809;51.892;8.384;2022-12-07T10:27:17;100467.25;;;4.00;100.00
17383;BME280;8809;51.892;8.384;2022-12-07T10:29:48;100466.56;;;4.03;100.00
17383;BME280;8809;51.892;8.384;2022-12-07T10:32:29;100464.94;;;4.05;100.00
17383;BME280;8809;51.892;8.384;2022-12-07T10:35:20;100459.78;;;4.05;100.00
17383;BME280;8809;51.892;8.384;2022-12-07T10:37:49;100461.78;;;4.09;100.00
17383;BME280;8809;51.892;8.384;2022-12-07T10:40:34;100456.72;;;4.10;100.00
17383;BME280;8809;51.892;8.384;2022-12-07T10:43:18;100456.09;;;4.15;100.00
17383;BME280;8809;51.892;8.384;2022-12-07T10:46:09;100446.09;;;4.19;100.00
17383;BME280;8809;51.892;8.384;2022-12-07T10:48:47;100444.09;;;4.28;100.00
17383;BME280;8809;51.892;8.384;2022-12-07T10:51:24;100446.16;;;4.34;100.00
17383;BME280;8809;51.892;8.384;2022-12-07T10:54:02;100444.69;;;4.37;100.00
17383;BME280;8809;51.892;8.384;2022-12-07T10:56:57;100446.72;;;4.43;100.00
17383;BME280;8809;51.892;8.384;2022-12-07T10:59:44;100445.56;;;4.51;100.00
17383;BME280;8809;51.892;8.384;2022-12-07T11:02:24;100442.34;;;4.55;100.00
17383;BME280;8809;51.892;8.384;2022-12-07T11:05:05;100440.22;;;4.63;100.00
17383;BME280;8809;51.892;8.384;2022-12-07T11:07:44;100428.41;;;4.66;100.00
17383;BME280;8809;51.892;8.384;2022-12-07T11:10:18;100434.47;;;4.67;100.00
17383;BME280;8809;51.892;8.384;2022-12-07T11:13:08;100430.19;;;4.67;100.00
17383;BME280;8809;51.892;8.384;2022-12-07T11:15:51;100429.31;;;4.67;100.00
17383;BME280;8809;51.892;8.384;2022-12-07T11:18:25;100423.69;;;4.59;100.00
17383;BME280;8809;51.892;8.384;2022-12-07T11:20:59;100427.31;;;4.63;100.00
17383;BME280;8809;51.892;8.384;2022-12-07T11:23:42;100430.69;;;4.62;100.00
17383;BME280;8809;51.892;8.384;2022-12-07T11:26:21;100421.09;;;4.59;100.00
17383;BME280;8809;51.892;8.384;2022-12-07T11:29:08;100413.44;;;4.61;100.00
17383;BME280;8809;51.892;8.384;2022-12-07T11:31:52;100413.44;;;4.61;100.00
17383;BME280;8809;51.892;8.384;2022-12-07T11:34:25;100405.59;;;4.59;100.00
17383;BME280;8809;51.892;8.384;2022-12-07T11:36:55;100404.84;;;4.62;100.00
17383;BME280;8809;51.892;8.384;2022-12-07T11:39:26;100395.41;;;4.62;100.00
17383;BME280;8809;51.892;8.384;2022-12-07T11:42:00;100398.09;;;4.64;100.00
17383;BME280;8809;51.892;8.384;2022-12-07T11:44:33;100395.63;;;4.65;100.00
17383;BME280;8809;51.892;8.384;2022-12-07T11:47:07;100399.41;;;4.70;100.00
17383;BME280;8809;51.892;8.384;2022-12-07T11:49:42;100399.56;;;4.73;100.00
17383;BME280;8809;51.892;8.384;2022-12-07T11:52:18;100392.81;;;4.75;100.00
17383;BME280;8809;51.892;8.384;2022-12-07T11:54:47;100386.94;;;4.78;100.00
17383;BME280;8809;51.892;8.384;2022-12-07T11:57:22;100379.28;;;4.79;100.00
17383;BME280;8809;51.892;8.384;2022-12-07T11:59:57;100388.19;;;4.84;100.00
17383;BME280;8809;51.892;8.384;2022-12-07T12:02:36;100383.13;;;4.86;100.00
17383;BME280;8809;51.892;8.384;2022-12-07T12:05:13;100377.16;;;4.87;100.00
17383;BME280;8809;51.892;8.384;2022-12-07T12:07:43;100373.03;;;4.91;100.00
17383;BME280;8809;51.892;8.384;2022-12-07T12:10:18;100378.22;;;4.91;100.00
17383;BME280;8809;51.892;8.384;2022-12-07T12:13:00;100377.16;;;4.87;100.00
17383;BME280;8809;51.892;8.384;2022-12-07T12:15:42;100377.16;;;4.87;100.00
17383;BME280;8809;51.892;8.384;2022-12-07T12:18:42;100375.28;;;4.84;100.00
17383;BME280;8809;51.892;8.384;2022-12-07T12:21:20;100370.66;;;4.94;100.00
17383;BME280;8809;51.892;8.384;2022-12-07T12:23:55;100376.38;;;5.03;100.00
17383;BME280;8809;51.892;8.384;2022-12-07T12:26:28;100361.31;;;5.10;100.00
17383;BME280;8809;51.892;8.384;2022-12-07T12:28:58;100367.91;;;5.20;100.00
17383;BME280;8809;51.892;8.384;2022-12-07T12:31:38;100360.06;;;5.33;100.00
17383;BME280;8809;51.892;8.384;2022-12-07T12:34:31;100360.78;;;5.45;100.00
17383;BME280;8809;51.892;8.384;2022-12-07T12:36:58;100362.13;;;5.53;100.00
17383;BME280;8809;51.892;8.384;2022-12-07T12:39:25;100365.03;;;5.59;100.00
17383;BME280;8809;51.892;8.384;2022-12-07T12:41:57;100347.72;;;5.58;100.00
17383;BME280;8809;51.892;8.384;2022-12-07T12:50:34;100348.84;;;5.47;100.00
17383;BME280;8809;51.892;8.384;2022-12-07T12:53:22;100350.06;;;5.39;100.00
17383;BME280;8809;51.892;8.384;2022-12-07T12:59:23;100348.03;;;5.34;100.00
17383;BME280;8809;51.892;8.384;2022-12-07T13:01:50;100341.69;;;5.29;100.00
17383;BME280;8809;51.892;8.384;2022-12-07T13:04:48;100344.22;;;5.27;100.00
17383;BME280;8809;51.892;8.384;2022-12-07T13:13:32;100329.06;;;5.18;100.00
17383;BME280;8809;51.892;8.384;2022-12-07T13:16:39;100328.16;;;5.18;100.00
17383;BME280;8809;51.892;8.384;2022-12-07T13:22:47;100327.06;;;5.14;100.00
17383;BME280;8809;51.892;8.384;2022-12-07T13:25:27;100341.00;;;5.16;100.00
17383;BME280;8809;51.892;8.384;2022-12-07T13:27:59;100331.66;;;5.18;100.00
17383;BME280;8809;51.892;8.384;2022-12-07T13:30:29;100329.06;;;5.18;100.00
17383;BME280;8809;51.892;8.384;2022-12-07T13:32:58;100330.09;;;5.22;100.00
17383;BME280;8809;51.892;8.384;2022-12-07T13:35:34;100326.25;;;5.30;100.00
17383;BME280;8809;51.892;8.384;2022-12-07T13:38:05;100323.31;;;5.39;100.00
17383;BME280;8809;51.892;8.384;2022-12-07T13:40:34;100324.56;;;5.45;100.00
17383;BME280;8809;51.892;8.384;2022-12-07T13:43:03;100321.53;;;5.52;100.00